sensor_id;sensor_type;location;lat;lon;timestamp;P1;durP1;ratioP1;P2;durP2;ratioP2
15929;SDS011;8064;51.142;4.780;2023-06-22T00:00:44;3.72;;;3.28;;
15929;SDS011;8064;51.142;4.780;2023-06-22T00:03:09;3.65;;;3.35;;
15929;SDS011;8064;51.142;4.780;2023-06-22T00:05:35;4.30;;;3.55;;
15929;SDS011;8064;51.142;4.780;2023-06-22T00:08:02;4.05;;;3.65;;
15929;SDS011;8064;51.142;4.780;2023-06-22T00:10:30;4.10;;;3.70;;
15929;SDS011;8064;51.142;4.780;2023-06-22T00:12:56;3.70;;;3.40;;
15929;SDS011;8064;51.142;4.780;2023-06-22T00:15:22;4.93;;;3.78;;
15929;SDS011;8064;51.142;4.780;2023-06-22T00:17:48;3.90;;;3.47;;
15929;SDS011;8064;51.142;4.780;2023-06-22T00:20:15;5.85;;;3.70;;
15929;SDS011;8064;51.142;4.780;2023-06-22T00:22:43;6.50;;;3.42;;
15929;SDS011;8064;51.142;4.780;2023-06-22T00:25:09;4.00;;;3.30;;
15929;SDS011;8064;51.142;4.780;2023-06-22T00:27:36;3.67;;;3.30;;
15929;SDS011;8064;51.142;4.780;2023-06-22T00:30:02;3.80;;;3.40;;
15929;SDS011;8064;51.142;4.780;2023-06-22T00:32:28;3.97;;;3.45;;
15929;SDS011;8064;51.142;4.780;2023-06-22T00:34:54;3.50;;;3.20;;
15929;SDS011;8064;51.142;4.780;2023-06-22T00:37:20;5.13;;;2.80;;
15929;SDS011;8064;51.142;4.780;2023-06-22T00:39:56;4.47;;;3.60;;
15929;SDS011;8064;51.142;4.780;2023-06-22T00:42:22;4.00;;;3.60;;
15929;SDS011;8064;51.142;4.780;2023-06-22T00:44:48;5.45;;;4.20;;
15929;SDS011;8064;51.142;4.780;2023-06-22T00:47:14;4.80;;;4.40;;
15929;SDS011;8064;51.142;4.780;2023-06-22T00:49:42;4.90;;;4.40;;
15929;SDS011;8064;51.142;4.780;2023-06-22T00:52:08;5.25;;;4.55;;
15929;SDS011;8064;51.142;4.780;2023-06-22T00:54:38;5.33;;;4.00;;
15929;SDS011;8064;51.142;4.780;2023-06-22T00:57:20;5.17;;;4.30;;
15929;SDS011;8064;51.142;4.780;2023-06-22T00:59:47;5.33;;;4.80;;
15929;SDS011;8064;51.142;4.780;2023-06-22T01:02:13;4.87;;;4.37;;
15929;SDS011;8064;51.142;4.780;2023-06-22T01:04:39;5.55;;;4.97;;
15929;SDS011;8064;51.142;4.780;2023-06-22T01:09:32;7.07;;;4.60;;
15929;SDS011;8064;51.142;4.780;2023-06-22T01:12:05;4.87;;;4.33;;
15929;SDS011;8064;51.142;4.780;2023-06-22T01:14:35;4.63;;;4.20;;
15929;SDS011;8064;51.142;4.780;2023-06-22T01:17:08;5.43;;;4.43;;
15929;SDS011;8064;51.142;4.780;2023-06-22T01:19:39;5.05;;;4.55;;
15929;SDS011;8064;51.142;4.780;2023-06-22T01:22:12;6.63;;;4.90;;
15929;SDS011;8064;51.142;4.780;2023-06-22T01:30:11;5.32;;;4.82;;
15929;SDS011;8064;51.142;4.780;2023-06-22T01:32:39;6.30;;;5.43;;
15929;SDS011;8064;51.142;4.780;2023-06-22T01:35:08;5.83;;;4.87;;
15929;SDS011;8064;51.142;4.780;2023-06-22T01:37:36;6.57;;;5.88;;
15929;SDS011;8064;51.142;4.780;2023-06-22T01:40:03;6.23;;;5.13;;
15929;SDS011;8064;51.142;4.780;2023-06-22T01:42:31;6.87;;;5.07;;
15929;SDS011;8064;51.142;4.780;2023-06-22T01:44:57;6.37;;;5.53;;
15929;SDS011;8064;51.142;4.780;2023-06-22T01:47:24;6.27;;;4.80;;
15929;SDS011;8064;51.142;4.780;2023-06-22T01:49:52;5.43;;;4.80;;
15929;SDS011;8064;51.142;4.780;2023-06-22T01:52:18;7.50;;;5.50;;
15929;SDS011;8064;51.142;4.780;2023-06-22T01:54:46;5.43;;;4.80;;
15929;SDS011;8064;51.142;4.780;2023-06-22T01:57:13;5.60;;;5.10;;
15929;SDS011;8064;51.142;4.780;2023-06-22T02:02:23;6.33;;;5.10;;
15929;SDS011;8064;51.142;4.780;2023-06-22T02:04:56;6.93;;;6.20;;
15929;SDS011;8064;51.142;4.780;2023-06-22T02:07:28;6.17;;;5.57;;
15929;SDS011;8064;51.142;4.780;2023-06-22T02:09:57;6.57;;;5.97;;
15929;SDS011;8064;51.142;4.780;2023-06-22T02:12:25;7.15;;;6.40;;
15929;SDS011;8064;51.142;4.780;2023-06-22T02:14:52;7.85;;;5.90;;
15929;SDS011;8064;51.142;4.780;2023-06-22T02:17:19;7.73;;;6.10;;
15929;SDS011;8064;51.142;4.780;2023-06-22T02:19:45;7.67;;;6.33;;
15929;SDS011;8064;51.142;4.780;2023-06-22T02:22:11;6.60;;;5.97;;
15929;SDS011;8064;51.142;4.780;2023-06-22T02:24:38;7.13;;;6.43;;
15929;SDS011;8064;51.142;4.780;2023-06-22T02:27:04;7.57;;;6.77;;
15929;SDS011;8064;51.142;4.780;2023-06-22T02:29:32;7.53;;;6.10;;
15929;SDS011;8064;51.142;4.780;2023-06-22T02:31:58;9.37;;;7.27;;
15929;SDS011;8064;51.142;4.780;2023-06-22T02:34:24;7.40;;;6.47;;
15929;SDS011;8064;51.142;4.780;2023-06-22T02:36:50;7.80;;;6.32;;
15929;SDS011;8064;51.142;4.780;2023-06-22T02:39:18;7.57;;;6.35;;
15929;SDS011;8064;51.142;4.780;2023-06-22T02:42:03;7.77;;;6.83;;
15929;SDS011;8064;51.142;4.780;2023-06-22T02:44:29;6.93;;;6.23;;
15929;SDS011;8064;51.142;4.780;2023-06-22T02:46:55;8.03;;;6.97;;
15929;SDS011;8064;51.142;4.780;2023-06-22T02:49:20;18.90;;;7.07;;
15929;SDS011;8064;51.142;4.780;2023-06-22T02:51:47;9.70;;;6.60;;
15929;SDS011;8064;51.142;4.780;2023-06-22T02:54:13;7.73;;;6.60;;
15929;SDS011;8064;51.142;4.780;2023-06-22T02:56:39;7.30;;;6.60;;
15929;SDS011;8064;51.142;4.780;2023-06-22T02:59:05;8.37;;;7.40;;
15929;SDS011;8064;51.142;4.780;2023-06-22T03:01:31;7.73;;;6.93;;
15929;SDS011;8064;51.142;4.780;2023-06-22T03:04:05;8.40;;;7.50;;
15929;SDS011;8064;51.142;4.780;2023-06-22T03:06:32;8.00;;;7.20;;
15929;SDS011;8064;51.142;4.780;2023-06-22T03:08:59;8.07;;;7.37;;
15929;SDS011;8064;51.142;4.780;2023-06-22T03:11:26;8.67;;;7.47;;
15929;SDS011;8064;51.142;4.780;2023-06-22T03:13:52;8.47;;;7.67;;
15929;SDS011;8064;51.142;4.780;2023-06-22T03:16:18;8.80;;;7.77;;
15929;SDS011;8064;51.142;4.780;2023-06-22T03:18:44;8.57;;;7.77;;
15929;SDS011;8064;51.142;4.780;2023-06-22T03:21:10;10.60;;;8.77;;
15929;SDS011;8064;51.142;4.780;2023-06-22T03:23:36;9.37;;;8.47;;
15929;SDS011;8064;51.142;4.780;2023-06-22T03:26:02;9.17;;;7.87;;
15929;SDS011;8064;51.142;4.780;2023-06-22T03:28:29;9.17;;;8.27;;
15929;SDS011;8064;51.142;4.780;2023-06-22T03:30:56;8.90;;;8.00;;
15929;SDS011;8064;51.142;4.780;2023-06-22T03:33:22;8.40;;;7.60;;
15929;SDS011;8064;51.142;4.780;2023-06-22T03:35:48;9.13;;;8.23;;
15929;SDS011;8064;51.142;4.780;2023-06-22T03:38:15;9.17;;;8.23;;
15929;SDS011;8064;51.142;4.780;2023-06-22T03:40:41;8.73;;;7.67;;
15929;SDS011;8064;51.142;4.780;2023-06-22T03:43:07;8.57;;;7.77;;
15929;SDS011;8064;51.142;4.780;2023-06-22T03:45:33;8.67;;;7.77;;
15929;SDS011;8064;51.142;4.780;2023-06-22T03:47:58;8.57;;;7.77;;
15929;SDS011;8064;51.142;4.780;2023-06-22T03:50:25;8.57;;;7.73;;
15929;SDS011;8064;51.142;4.780;2023-06-22T03:52:51;9.80;;;8.47;;
15929;SDS011;8064;51.142;4.780;2023-06-22T03:55:17;7.87;;;7.10;;
15929;SDS011;8064;51.142;4.780;2023-06-22T03:57:44;8.67;;;7.77;;
15929;SDS011;8064;51.142;4.780;2023-06-22T04:00:10;9.50;;;8.50;;
15929;SDS011;8064;51.142;4.780;2023-06-22T04:02:36;9.97;;;9.00;;
15929;SDS011;8064;51.142;4.780;2023-06-22T04:05:02;10.60;;;9.47;;
15929;SDS011;8064;51.142;4.780;2023-06-22T04:07:28;10.13;;;9.13;;
15929;SDS011;8064;51.142;4.780;2023-06-22T04:09:54;8.50;;;7.70;;
15929;SDS011;8064;51.142;4.780;2023-06-22T04:12:19;10.30;;;9.07;;
15929;SDS011;8064;51.142;4.780;2023-06-22T04:14:45;13.00;;;9.40;;
15929;SDS011;8064;51.142;4.780;2023-06-22T04:17:11;10.27;;;9.20;;
15929;SDS011;8064;51.142;4.780;2023-06-22T04:19:39;10.27;;;9.20;;
15929;SDS011;8064;51.142;4.780;2023-06-22T04:22:05;9.47;;;8.47;;
15929;SDS011;8064;51.142;4.780;2023-06-22T04:24:32;13.77;;;9.83;;
15929;SDS011;8064;51.142;4.780;2023-06-22T04:26:58;10.20;;;9.20;;
15929;SDS011;8064;51.142;4.780;2023-06-22T04:29:28;13.97;;;10.03;;
15929;SDS011;8064;51.142;4.780;2023-06-22T04:31:55;13.00;;;9.63;;
15929;SDS011;8064;51.142;4.780;2023-06-22T04:34:23;11.47;;;10.10;;
15929;SDS011;8064;51.142;4.780;2023-06-22T04:36:51;11.23;;;10.13;;
15929;SDS011;8064;51.142;4.780;2023-06-22T04:39:17;11.07;;;9.10;;
15929;SDS011;8064;51.142;4.780;2023-06-22T04:41:44;10.63;;;9.63;;
15929;SDS011;8064;51.142;4.780;2023-06-22T04:44:10;11.50;;;10.37;;
15929;SDS011;8064;51.142;4.780;2023-06-22T04:46:37;12.20;;;9.27;;
15929;SDS011;8064;51.142;4.780;2023-06-22T04:49:04;11.03;;;9.83;;
15929;SDS011;8064;51.142;4.780;2023-06-22T04:51:31;10.77;;;9.77;;
15929;SDS011;8064;51.142;4.780;2023-06-22T04:53:57;12.13;;;10.37;;
15929;SDS011;8064;51.142;4.780;2023-06-22T04:56:25;11.03;;;10.00;;
15929;SDS011;8064;51.142;4.780;2023-06-22T04:58:53;11.27;;;10.17;;
15929;SDS011;8064;51.142;4.780;2023-06-22T05:01:22;12.10;;;10.90;;
15929;SDS011;8064;51.142;4.780;2023-06-22T05:03:48;10.75;;;9.63;;
15929;SDS011;8064;51.142;4.780;2023-06-22T05:06:14;11.85;;;10.60;;
15929;SDS011;8064;51.142;4.780;2023-06-22T05:08:40;11.75;;;10.40;;
15929;SDS011;8064;51.142;4.780;2023-06-22T05:11:06;11.50;;;10.30;;
15929;SDS011;8064;51.142;4.780;2023-06-22T05:13:32;12.57;;;11.30;;
15929;SDS011;8064;51.142;4.780;2023-06-22T05:15:58;12.65;;;11.05;;
15929;SDS011;8064;51.142;4.780;2023-06-22T05:18:27;12.68;;;11.32;;
15929;SDS011;8064;51.142;4.780;2023-06-22T05:20:54;11.63;;;10.47;;
15929;SDS011;8064;51.142;4.780;2023-06-22T05:23:20;13.77;;;11.77;;
15929;SDS011;8064;51.142;4.780;2023-06-22T05:25:46;12.68;;;11.35;;
15929;SDS011;8064;51.142;4.780;2023-06-22T05:28:12;14.33;;;11.13;;
15929;SDS011;8064;51.142;4.780;2023-06-22T05:30:37;14.40;;;11.87;;
15929;SDS011;8064;51.142;4.780;2023-06-22T05:33:03;13.70;;;11.73;;
15929;SDS011;8064;51.142;4.780;2023-06-22T05:35:29;12.50;;;11.30;;
15929;SDS011;8064;51.142;4.780;2023-06-22T05:37:55;15.50;;;12.40;;
15929;SDS011;8064;51.142;4.780;2023-06-22T05:40:21;13.80;;;12.33;;
15929;SDS011;8064;51.142;4.780;2023-06-22T05:42:47;18.80;;;12.87;;
15929;SDS011;8064;51.142;4.780;2023-06-22T05:45:13;16.17;;;11.48;;
15929;SDS011;8064;51.142;4.780;2023-06-22T05:47:38;13.07;;;11.77;;
15929;SDS011;8064;51.142;4.780;2023-06-22T05:50:04;13.55;;;11.88;;
15929;SDS011;8064;51.142;4.780;2023-06-22T05:52:33;13.27;;;11.85;;
15929;SDS011;8064;51.142;4.780;2023-06-22T05:54:59;12.93;;;11.73;;
15929;SDS011;8064;51.142;4.780;2023-06-22T05:57:25;13.15;;;11.55;;
15929;SDS011;8064;51.142;4.780;2023-06-22T05:59:51;13.73;;;12.40;;
15929;SDS011;8064;51.142;4.780;2023-06-22T06:02:18;14.40;;;12.15;;
15929;SDS011;8064;51.142;4.780;2023-06-22T06:04:44;13.82;;;12.43;;
15929;SDS011;8064;51.142;4.780;2023-06-22T06:07:10;13.00;;;11.77;;
15929;SDS011;8064;51.142;4.780;2023-06-22T06:09:36;14.32;;;12.38;;
15929;SDS011;8064;51.142;4.780;2023-06-22T06:12:02;14.53;;;12.80;;
15929;SDS011;8064;51.142;4.780;2023-06-22T06:14:28;13.90;;;12.52;;
15929;SDS011;8064;51.142;4.780;2023-06-22T06:16:54;16.27;;;13.10;;
15929;SDS011;8064;51.142;4.780;2023-06-22T06:19:19;17.13;;;13.20;;
15929;SDS011;8064;51.142;4.780;2023-06-22T06:21:45;15.05;;;13.55;;
15929;SDS011;8064;51.142;4.780;2023-06-22T06:24:11;14.65;;;13.05;;
15929;SDS011;8064;51.142;4.780;2023-06-22T06:26:37;14.38;;;13.07;;
15929;SDS011;8064;51.142;4.780;2023-06-22T06:29:03;14.52;;;13.13;;
15929;SDS011;8064;51.142;4.780;2023-06-22T06:31:29;16.15;;;14.02;;
15929;SDS011;8064;51.142;4.780;2023-06-22T06:33:55;16.30;;;13.63;;
15929;SDS011;8064;51.142;4.780;2023-06-22T06:36:21;16.05;;;14.35;;
15929;SDS011;8064;51.142;4.780;2023-06-22T06:38:47;15.68;;;13.38;;
15929;SDS011;8064;51.142;4.780;2023-06-22T06:41:13;15.73;;;14.17;;
15929;SDS011;8064;51.142;4.780;2023-06-22T06:43:40;15.23;;;13.57;;
15929;SDS011;8064;51.142;4.780;2023-06-22T06:46:07;15.70;;;14.02;;
15929;SDS011;8064;51.142;4.780;2023-06-22T06:48:33;16.02;;;14.32;;
15929;SDS011;8064;51.142;4.780;2023-06-22T06:50:59;15.75;;;14.27;;
15929;SDS011;8064;51.142;4.780;2023-06-22T06:53:24;16.13;;;14.02;;
15929;SDS011;8064;51.142;4.780;2023-06-22T06:55:51;16.85;;;14.60;;
15929;SDS011;8064;51.142;4.780;2023-06-22T06:58:17;15.15;;;13.43;;
15929;SDS011;8064;51.142;4.780;2023-06-22T07:00:43;15.13;;;13.65;;
15929;SDS011;8064;51.142;4.780;2023-06-22T07:03:08;16.58;;;13.30;;
15929;SDS011;8064;51.142;4.780;2023-06-22T07:05:34;14.20;;;12.80;;
15929;SDS011;8064;51.142;4.780;2023-06-22T07:08:00;15.63;;;14.00;;
15929;SDS011;8064;51.142;4.780;2023-06-22T07:10:27;14.52;;;13.23;;
15929;SDS011;8064;51.142;4.780;2023-06-22T07:12:53;14.82;;;13.32;;
15929;SDS011;8064;51.142;4.780;2023-06-22T07:15:19;17.55;;;13.75;;
15929;SDS011;8064;51.142;4.780;2023-06-22T07:17:45;14.48;;;13.02;;
15929;SDS011;8064;51.142;4.780;2023-06-22T07:20:11;13.00;;;11.70;;
15929;SDS011;8064;51.142;4.780;2023-06-22T07:25:23;13.13;;;11.93;;
15929;SDS011;8064;51.142;4.780;2023-06-22T07:30:34;13.98;;;12.57;;
15929;SDS011;8064;51.142;4.780;2023-06-22T07:33:00;13.38;;;12.07;;
15929;SDS011;8064;51.142;4.780;2023-06-22T07:35:28;12.65;;;11.10;;
15929;SDS011;8064;51.142;4.780;2023-06-22T07:37:54;12.57;;;10.75;;
15929;SDS011;8064;51.142;4.780;2023-06-22T07:40:20;11.40;;;10.30;;
15929;SDS011;8064;51.142;4.780;2023-06-22T07:42:46;11.13;;;10.02;;
15929;SDS011;8064;51.142;4.780;2023-06-22T07:45:21;10.23;;;9.23;;
15929;SDS011;8064;51.142;4.780;2023-06-22T07:47:47;9.80;;;8.77;;
15929;SDS011;8064;51.142;4.780;2023-06-22T07:50:13;9.15;;;8.35;;
15929;SDS011;8064;51.142;4.780;2023-06-22T07:52:38;9.77;;;8.38;;
15929;SDS011;8064;51.142;4.780;2023-06-22T07:55:04;8.75;;;7.85;;
15929;SDS011;8064;51.142;4.780;2023-06-22T07:57:30;11.48;;;7.35;;
15929;SDS011;8064;51.142;4.780;2023-06-22T07:59:59;7.80;;;7.00;;
15929;SDS011;8064;51.142;4.780;2023-06-22T08:02:26;8.38;;;7.40;;
15929;SDS011;8064;51.142;4.780;2023-06-22T08:04:52;7.53;;;6.22;;
15929;SDS011;8064;51.142;4.780;2023-06-22T08:07:17;7.57;;;6.80;;
15929;SDS011;8064;51.142;4.780;2023-06-22T08:09:47;6.60;;;5.90;;
15929;SDS011;8064;51.142;4.780;2023-06-22T08:12:13;6.65;;;5.95;;
15929;SDS011;8064;51.142;4.780;2023-06-22T08:14:41;6.80;;;6.10;;
15929;SDS011;8064;51.142;4.780;2023-06-22T08:17:09;7.28;;;6.50;;
15929;SDS011;8064;51.142;4.780;2023-06-22T08:19:35;6.03;;;5.25;;
15929;SDS011;8064;51.142;4.780;2023-06-22T08:22:02;5.50;;;4.97;;
15929;SDS011;8064;51.142;4.780;2023-06-22T08:24:28;5.15;;;4.72;;
15929;SDS011;8064;51.142;4.780;2023-06-22T08:26:55;5.57;;;4.80;;
15929;SDS011;8064;51.142;4.780;2023-06-22T08:29:21;5.10;;;4.60;;
15929;SDS011;8064;51.142;4.780;2023-06-22T08:31:47;4.63;;;4.15;;
15929;SDS011;8064;51.142;4.780;2023-06-22T08:34:13;5.90;;;4.70;;
15929;SDS011;8064;51.142;4.780;2023-06-22T08:36:38;5.90;;;5.30;;
15929;SDS011;8064;51.142;4.780;2023-06-22T08:39:06;5.60;;;4.57;;
15929;SDS011;8064;51.142;4.780;2023-06-22T08:41:33;5.72;;;4.38;;
15929;SDS011;8064;51.142;4.780;2023-06-22T08:43:59;6.20;;;4.70;;
15929;SDS011;8064;51.142;4.780;2023-06-22T08:46:24;6.93;;;5.15;;
15929;SDS011;8064;51.142;4.780;2023-06-22T08:48:55;6.25;;;5.38;;
15929;SDS011;8064;51.142;4.780;2023-06-22T08:51:22;6.82;;;5.20;;
15929;SDS011;8064;51.142;4.780;2023-06-22T08:53:49;7.07;;;5.72;;
15929;SDS011;8064;51.142;4.780;2023-06-22T08:56:14;5.95;;;5.35;;
15929;SDS011;8064;51.142;4.780;2023-06-22T08:58:40;7.65;;;5.60;;
15929;SDS011;8064;51.142;4.780;2023-06-22T09:01:06;7.45;;;5.90;;
15929;SDS011;8064;51.142;4.780;2023-06-22T09:03:32;6.70;;;5.97;;
15929;SDS011;8064;51.142;4.780;2023-06-22T09:06:01;6.95;;;6.32;;
15929;SDS011;8064;51.142;4.780;2023-06-22T09:08:27;8.20;;;6.32;;
15929;SDS011;8064;51.142;4.780;2023-06-22T09:10:52;7.95;;;6.22;;
15929;SDS011;8064;51.142;4.780;2023-06-22T09:13:18;7.82;;;6.72;;
15929;SDS011;8064;51.142;4.780;2023-06-22T09:15:44;9.90;;;7.68;;
15929;SDS011;8064;51.142;4.780;2023-06-22T09:18:10;7.97;;;6.90;;
15929;SDS011;8064;51.142;4.780;2023-06-22T09:20:36;10.45;;;7.90;;
15929;SDS011;8064;51.142;4.780;2023-06-22T09:23:02;8.88;;;7.97;;
15929;SDS011;8064;51.142;4.780;2023-06-22T09:25:28;9.05;;;8.10;;
15929;SDS011;8064;51.142;4.780;2023-06-22T09:27:54;9.60;;;8.20;;
15929;SDS011;8064;51.142;4.780;2023-06-22T09:30:19;8.70;;;7.47;;
15929;SDS011;8064;51.142;4.780;2023-06-22T09:32:46;7.90;;;7.10;;
15929;SDS011;8064;51.142;4.780;2023-06-22T09:35:12;11.13;;;7.22;;
15929;SDS011;8064;51.142;4.780;2023-06-22T09:37:38;8.27;;;7.47;;
15929;SDS011;8064;51.142;4.780;2023-06-22T09:40:05;9.27;;;7.32;;
15929;SDS011;8064;51.142;4.780;2023-06-22T09:42:35;8.98;;;8.02;;
15929;SDS011;8064;51.142;4.780;2023-06-22T09:45:01;9.13;;;7.90;;
15929;SDS011;8064;51.142;4.780;2023-06-22T09:47:27;9.38;;;8.43;;
15929;SDS011;8064;51.142;4.780;2023-06-22T09:49:54;10.45;;;8.68;;
15929;SDS011;8064;51.142;4.780;2023-06-22T09:52:21;9.68;;;8.60;;
15929;SDS011;8064;51.142;4.780;2023-06-22T09:54:47;9.45;;;8.40;;
15929;SDS011;8064;51.142;4.780;2023-06-22T09:57:13;10.68;;;9.13;;
15929;SDS011;8064;51.142;4.780;2023-06-22T09:59:38;12.63;;;9.88;;
15929;SDS011;8064;51.142;4.780;2023-06-22T10:02:05;11.15;;;9.68;;
15929;SDS011;8064;51.142;4.780;2023-06-22T10:04:32;11.68;;;10.55;;
15929;SDS011;8064;51.142;4.780;2023-06-22T10:06:59;11.30;;;9.77;;
15929;SDS011;8064;51.142;4.780;2023-06-22T10:09:25;14.35;;;10.15;;
15929;SDS011;8064;51.142;4.780;2023-06-22T10:11:51;15.00;;;10.05;;
15929;SDS011;8064;51.142;4.780;2023-06-22T10:14:16;15.45;;;12.68;;
15929;SDS011;8064;51.142;4.780;2023-06-22T10:16:42;15.75;;;12.18;;
15929;SDS011;8064;51.142;4.780;2023-06-22T10:19:08;13.27;;;11.98;;
15929;SDS011;8064;51.142;4.780;2023-06-22T10:21:34;15.35;;;12.82;;
15929;SDS011;8064;51.142;4.780;2023-06-22T10:24:00;16.00;;;12.88;;
15929;SDS011;8064;51.142;4.780;2023-06-22T10:26:31;14.93;;;13.43;;
15929;SDS011;8064;51.142;4.780;2023-06-22T10:28:57;15.60;;;13.90;;
15929;SDS011;8064;51.142;4.780;2023-06-22T10:31:23;15.77;;;14.18;;
15929;SDS011;8064;51.142;4.780;2023-06-22T10:33:49;14.70;;;13.27;;
15929;SDS011;8064;51.142;4.780;2023-06-22T10:36:15;17.90;;;14.40;;
15929;SDS011;8064;51.142;4.780;2023-06-22T10:38:41;15.82;;;14.00;;
15929;SDS011;8064;51.142;4.780;2023-06-22T10:41:06;16.55;;;14.70;;
15929;SDS011;8064;51.142;4.780;2023-06-22T10:43:32;16.35;;;14.73;;
15929;SDS011;8064;51.142;4.780;2023-06-22T10:45:58;16.85;;;15.00;;
15929;SDS011;8064;51.142;4.780;2023-06-22T10:48:24;18.20;;;15.48;;
15929;SDS011;8064;51.142;4.780;2023-06-22T10:50:49;18.50;;;15.52;;
15929;SDS011;8064;51.142;4.780;2023-06-22T10:53:15;18.50;;;16.70;;
15929;SDS011;8064;51.142;4.780;2023-06-22T10:55:41;19.52;;;16.98;;
15929;SDS011;8064;51.142;4.780;2023-06-22T10:58:07;18.63;;;16.80;;
15929;SDS011;8064;51.142;4.780;2023-06-22T11:00:32;18.88;;;16.48;;
15929;SDS011;8064;51.142;4.780;2023-06-22T11:02:58;20.35;;;17.75;;
15929;SDS011;8064;51.142;4.780;2023-06-22T11:05:24;19.60;;;17.63;;
15929;SDS011;8064;51.142;4.780;2023-06-22T11:07:50;23.70;;;19.10;;
15929;SDS011;8064;51.142;4.780;2023-06-22T11:10:15;21.30;;;19.17;;
15929;SDS011;8064;51.142;4.780;2023-06-22T11:12:41;21.63;;;19.38;;
15929;SDS011;8064;51.142;4.780;2023-06-22T11:15:08;21.15;;;19.05;;
15929;SDS011;8064;51.142;4.780;2023-06-22T11:17:34;21.58;;;19.58;;
15929;SDS011;8064;51.142;4.780;2023-06-22T11:20:00;21.17;;;19.20;;
15929;SDS011;8064;51.142;4.780;2023-06-22T11:22:27;21.50;;;19.30;;
15929;SDS011;8064;51.142;4.780;2023-06-22T11:24:53;20.05;;;18.13;;
15929;SDS011;8064;51.142;4.780;2023-06-22T11:27:18;20.38;;;18.38;;
15929;SDS011;8064;51.142;4.780;2023-06-22T11:29:44;20.27;;;18.48;;
15929;SDS011;8064;51.142;4.780;2023-06-22T11:32:10;20.98;;;18.73;;
15929;SDS011;8064;51.142;4.780;2023-06-22T11:34:36;22.25;;;19.70;;
15929;SDS011;8064;51.142;4.780;2023-06-22T11:37:01;21.00;;;18.83;;
15929;SDS011;8064;51.142;4.780;2023-06-22T11:39:27;20.48;;;18.50;;
15929;SDS011;8064;51.142;4.780;2023-06-22T11:41:53;20.73;;;18.13;;
15929;SDS011;8064;51.142;4.780;2023-06-22T11:44:19;20.60;;;18.63;;
15929;SDS011;8064;51.142;4.780;2023-06-22T11:46:45;20.77;;;18.77;;
15929;SDS011;8064;51.142;4.780;2023-06-22T11:49:10;21.52;;;19.45;;
15929;SDS011;8064;51.142;4.780;2023-06-22T11:51:36;20.67;;;18.60;;
15929;SDS011;8064;51.142;4.780;2023-06-22T11:54:02;21.42;;;19.42;;
15929;SDS011;8064;51.142;4.780;2023-06-22T11:56:28;24.67;;;19.65;;
15929;SDS011;8064;51.142;4.780;2023-06-22T11:58:54;20.33;;;18.23;;
15929;SDS011;8064;51.142;4.780;2023-06-22T12:01:20;20.60;;;18.63;;
15929;SDS011;8064;51.142;4.780;2023-06-22T12:03:46;21.25;;;19.25;;
15929;SDS011;8064;51.142;4.780;2023-06-22T12:06:13;20.00;;;18.13;;
15929;SDS011;8064;51.142;4.780;2023-06-22T12:08:38;19.98;;;18.10;;
15929;SDS011;8064;51.142;4.780;2023-06-22T12:11:04;20.35;;;18.17;;
15929;SDS011;8064;51.142;4.780;2023-06-22T12:13:30;19.75;;;17.75;;
15929;SDS011;8064;51.142;4.780;2023-06-22T12:15:56;19.17;;;17.27;;
15929;SDS011;8064;51.142;4.780;2023-06-22T12:18:21;20.80;;;18.42;;
15929;SDS011;8064;51.142;4.780;2023-06-22T12:20:47;20.13;;;18.23;;
15929;SDS011;8064;51.142;4.780;2023-06-22T12:23:14;20.48;;;18.58;;
15929;SDS011;8064;51.142;4.780;2023-06-22T12:25:40;21.33;;;19.27;;
15929;SDS011;8064;51.142;4.780;2023-06-22T12:28:05;21.98;;;19.98;;
15929;SDS011;8064;51.142;4.780;2023-06-22T12:30:32;21.90;;;19.80;;
15929;SDS011;8064;51.142;4.780;2023-06-22T12:32:58;22.25;;;20.13;;
15929;SDS011;8064;51.142;4.780;2023-06-22T12:35:24;21.63;;;19.58;;
15929;SDS011;8064;51.142;4.780;2023-06-22T12:37:50;23.65;;;21.45;;
15929;SDS011;8064;51.142;4.780;2023-06-22T12:40:15;23.10;;;20.80;;
15929;SDS011;8064;51.142;4.780;2023-06-22T12:42:41;23.73;;;21.40;;
15929;SDS011;8064;51.142;4.780;2023-06-22T12:45:07;24.58;;;22.27;;
15929;SDS011;8064;51.142;4.780;2023-06-22T12:47:34;24.48;;;22.17;;
15929;SDS011;8064;51.142;4.780;2023-06-22T12:50:00;24.85;;;22.35;;
15929;SDS011;8064;51.142;4.780;2023-06-22T12:52:26;24.27;;;22.05;;
15929;SDS011;8064;51.142;4.780;2023-06-22T12:54:51;25.42;;;22.85;;
15929;SDS011;8064;51.142;4.780;2023-06-22T12:57:17;23.77;;;21.55;;
15929;SDS011;8064;51.142;4.780;2023-06-22T12:59:45;23.92;;;21.55;;
15929;SDS011;8064;51.142;4.780;2023-06-22T13:02:10;23.92;;;21.63;;
15929;SDS011;8064;51.142;4.780;2023-06-22T13:04:36;23.77;;;21.42;;
15929;SDS011;8064;51.142;4.780;2023-06-22T13:07:02;24.03;;;21.83;;
15929;SDS011;8064;51.142;4.780;2023-06-22T13:09:28;24.13;;;21.70;;
15929;SDS011;8064;51.142;4.780;2023-06-22T13:11:53;23.70;;;21.42;;
15929;SDS011;8064;51.142;4.780;2023-06-22T13:14:19;22.95;;;20.77;;
15929;SDS011;8064;51.142;4.780;2023-06-22T13:16:45;23.52;;;21.23;;
15929;SDS011;8064;51.142;4.780;2023-06-22T13:19:11;21.77;;;19.73;;
15929;SDS011;8064;51.142;4.780;2023-06-22T13:21:37;21.60;;;19.52;;
15929;SDS011;8064;51.142;4.780;2023-06-22T13:24:02;20.42;;;18.55;;
15929;SDS011;8064;51.142;4.780;2023-06-22T13:26:31;20.45;;;18.25;;
15929;SDS011;8064;51.142;4.780;2023-06-22T13:28:57;19.80;;;17.90;;
15929;SDS011;8064;51.142;4.780;2023-06-22T13:31:23;19.55;;;17.58;;
15929;SDS011;8064;51.142;4.780;2023-06-22T13:33:49;20.00;;;18.10;;
15929;SDS011;8064;51.142;4.780;2023-06-22T13:36:17;19.85;;;17.90;;
15929;SDS011;8064;51.142;4.780;2023-06-22T13:38:43;18.20;;;16.60;;
15929;SDS011;8064;51.142;4.780;2023-06-22T13:41:09;19.77;;;17.77;;
15929;SDS011;8064;51.142;4.780;2023-06-22T13:43:34;18.83;;;17.03;;
15929;SDS011;8064;51.142;4.780;2023-06-22T13:46:00;19.45;;;17.08;;
15929;SDS011;8064;51.142;4.780;2023-06-22T13:48:26;19.98;;;17.98;;
15929;SDS011;8064;51.142;4.780;2023-06-22T13:50:53;19.13;;;17.33;;
15929;SDS011;8064;51.142;4.780;2023-06-22T13:53:19;19.63;;;17.73;;
15929;SDS011;8064;51.142;4.780;2023-06-22T13:55:45;20.10;;;18.27;;
15929;SDS011;8064;51.142;4.780;2023-06-22T13:58:12;19.80;;;17.83;;
15929;SDS011;8064;51.142;4.780;2023-06-22T14:00:38;21.50;;;19.57;;
15929;SDS011;8064;51.142;4.780;2023-06-22T14:03:04;20.42;;;18.58;;
15929;SDS011;8064;51.142;4.780;2023-06-22T14:05:30;20.10;;;18.20;;
15929;SDS011;8064;51.142;4.780;2023-06-22T14:07:55;20.07;;;18.07;;
15929;SDS011;8064;51.142;4.780;2023-06-22T14:10:22;19.93;;;18.03;;
15929;SDS011;8064;51.142;4.780;2023-06-22T14:12:47;19.80;;;18.00;;
15929;SDS011;8064;51.142;4.780;2023-06-22T14:15:13;19.87;;;18.07;;
15929;SDS011;8064;51.142;4.780;2023-06-22T14:17:39;21.03;;;19.00;;
15929;SDS011;8064;51.142;4.780;2023-06-22T14:20:05;21.13;;;19.00;;
15929;SDS011;8064;51.142;4.780;2023-06-22T14:22:33;19.00;;;17.27;;
15929;SDS011;8064;51.142;4.780;2023-06-22T14:25:00;20.23;;;18.17;;
15929;SDS011;8064;51.142;4.780;2023-06-22T14:27:26;18.98;;;17.27;;
15929;SDS011;8064;51.142;4.780;2023-06-22T14:29:52;20.08;;;18.17;;
15929;SDS011;8064;51.142;4.780;2023-06-22T14:32:18;18.83;;;17.23;;
15929;SDS011;8064;51.142;4.780;2023-06-22T14:34:44;19.33;;;17.53;;
15929;SDS011;8064;51.142;4.780;2023-06-22T14:37:10;19.17;;;17.37;;
15929;SDS011;8064;51.142;4.780;2023-06-22T14:39:36;19.63;;;17.77;;
15929;SDS011;8064;51.142;4.780;2023-06-22T14:42:02;19.43;;;17.33;;
15929;SDS011;8064;51.142;4.780;2023-06-22T14:44:28;20.77;;;18.60;;
15929;SDS011;8064;51.142;4.780;2023-06-22T14:46:55;19.77;;;18.07;;
15929;SDS011;8064;51.142;4.780;2023-06-22T14:49:21;21.37;;;19.43;;
15929;SDS011;8064;51.142;4.780;2023-06-22T14:51:47;21.07;;;19.03;;
15929;SDS011;8064;51.142;4.780;2023-06-22T14:54:13;21.33;;;19.43;;
15929;SDS011;8064;51.142;4.780;2023-06-22T14:56:38;20.93;;;19.03;;